createdAt,value
2019-01-18T00:00:12.218Z,2.65
2019-01-18T00:01:12.477Z,2.57
2019-01-18T00:02:12.695Z,2.62
2019-01-18T00:03:12.695Z,2.64
2019-01-18T00:04:12.195Z,2.57
2019-01-18T00:05:12.416Z,2.61
2019-01-18T00:06:12.401Z,2.53
2019-01-18T00:07:12.414Z,2.54
2019-01-18T00:08:12.628Z,2.54
2019-01-18T00:09:12.361Z,2.6
2019-01-18T00:10:12.612Z,2.57
2019-01-18T00:11:12.363Z,2.56
2019-01-18T00:12:12.585Z,2.56
2019-01-18T00:13:12.338Z,2.62
2019-01-18T00:14:12.062Z,2.56
2019-01-18T00:15:12.065Z,2.6
2019-01-18T00:16:12.535Z,2.53
2019-01-18T00:17:12.304Z,2.51
2019-01-18T00:18:12.281Z,2.51
2019-01-18T00:19:12.252Z,2.56
2019-01-18T00:20:12.267Z,2.56
2019-01-18T00:21:12.256Z,2.57
2019-01-18T00:22:12.234Z,2.56
2019-01-18T00:23:12.220Z,2.64
2019-01-18T00:24:12.463Z,2.61
2019-01-18T00:25:12.198Z,2.5
2019-01-18T00:26:11.944Z,2.5
2019-01-18T00:27:12.221Z,2.53
2019-01-18T00:28:12.411Z,2.53
2019-01-18T00:29:12.383Z,2.57
2019-01-18T00:30:12.129Z,2.53
2019-01-18T00:31:12.381Z,2.6
2019-01-18T00:32:12.362Z,2.51
2019-01-18T00:33:11.865Z,2.51
2019-01-18T00:34:12.342Z,2.53
2019-01-18T00:35:12.070Z,2.51
2019-01-18T00:36:12.317Z,2.47
2019-01-18T00:37:11.805Z,2.5
2019-01-18T00:38:12.280Z,2.56
2019-01-18T00:39:12.291Z,2.6
2019-01-18T00:40:12.009Z,2.5
2019-01-18T00:41:11.758Z,2.51
2019-01-18T00:42:11.990Z,2.39
2019-01-18T00:43:11.981Z,2.47
2019-01-18T00:44:12.237Z,2.39
2019-01-18T00:45:11.949Z,2.39
2019-01-18T00:46:12.190Z,2.38
2019-01-18T00:47:11.956Z,2.44
2019-01-18T00:48:12.178Z,2.33
2019-01-18T00:49:11.915Z,2.42
2019-01-18T00:50:11.901Z,2.46
2019-01-18T00:51:12.139Z,2.39
2019-01-18T00:52:12.130Z,2.38
2019-01-18T00:53:11.872Z,2.44
2019-01-18T00:54:11.853Z,2.38
2019-01-18T00:55:12.090Z,2.39
2019-01-18T00:56:11.848Z,2.44
2019-01-18T00:57:11.823Z,2.36
2019-01-18T00:58:12.065Z,2.43
2019-01-18T00:59:11.550Z,2.42
2019-01-18T01:00:11.788Z,2.39
2019-01-18T01:01:12.029Z,2.42
2019-01-18T01:02:11.759Z,2.46
2019-01-18T01:03:11.991Z,2.51
2019-01-18T01:04:11.744Z,2.54
2019-01-18T01:05:11.980Z,2.51
2019-01-18T01:06:11.722Z,2.6
2019-01-18T01:07:11.736Z,2.57
2019-01-18T01:08:11.962Z,2.64
2019-01-18T01:09:11.945Z,2.74
2019-01-18T01:10:11.701Z,2.72
2019-01-18T01:11:11.906Z,2.71
2019-01-18T01:12:11.405Z,2.71
2019-01-18T01:13:11.890Z,2.75
2019-01-18T01:14:11.635Z,2.69
2019-01-18T01:15:11.626Z,2.75
2019-01-18T01:16:11.624Z,2.69
2019-01-18T01:17:11.350Z,2.74
2019-01-18T01:18:11.831Z,2.79
2019-01-18T01:19:11.589Z,2.71
2019-01-18T01:20:11.317Z,2.71
2019-01-18T01:21:11.575Z,2.79
2019-01-18T01:22:11.783Z,2.69
2019-01-18T01:23:11.543Z,2.74
2019-01-18T01:24:11.770Z,2.71
2019-01-18T01:25:11.757Z,2.74
2019-01-18T01:26:11.492Z,2.77
2019-01-18T01:27:11.487Z,2.71
2019-01-18T01:28:11.476Z,2.69
2019-01-18T01:29:11.461Z,2.71
2019-01-18T01:30:11.455Z,2.75
2019-01-18T01:31:11.436Z,2.72
2019-01-18T01:32:11.430Z,2.68
2019-01-18T01:33:11.421Z,2.67
2019-01-18T01:34:11.667Z,2.68
2019-01-18T01:35:11.645Z,2.68
2019-01-18T01:36:11.394Z,2.71
2019-01-18T01:37:11.628Z,2.71
2019-01-18T01:38:11.614Z,2.71
2019-01-18T01:39:11.107Z,2.64
2019-01-18T01:40:11.335Z,2.64
2019-01-18T01:41:11.340Z,2.68
2019-01-18T01:42:11.333Z,2.72
2019-01-18T01:43:11.305Z,2.71
2019-01-18T01:44:11.294Z,2.64
2019-01-18T01:45:11.541Z,2.8
2019-01-18T01:46:11.270Z,2.68
2019-01-18T01:47:11.515Z,2.72
2019-01-18T01:48:11.242Z,2.71
2019-01-18T01:49:11.491Z,2.75
2019-01-18T01:50:11.475Z,2.69
2019-01-18T01:51:11.244Z,2.69
2019-01-18T01:52:11.208Z,2.8
2019-01-18T01:53:11.446Z,2.82
2019-01-18T01:54:11.445Z,2.82
2019-01-18T01:55:10.920Z,2.9
2019-01-18T01:56:11.404Z,2.85
2019-01-18T01:57:11.393Z,2.83
2019-01-18T01:58:11.383Z,2.77
2019-01-18T01:59:11.389Z,2.77
2019-01-18T02:00:11.113Z,2.92
2019-01-18T02:01:11.103Z,2.9
2019-01-18T02:02:11.101Z,2.85
2019-01-18T02:03:11.080Z,2.75
2019-01-18T02:04:11.318Z,2.9
2019-01-18T02:05:11.317Z,2.85
2019-01-18T02:06:11.066Z,2.82
2019-01-18T02:07:11.284Z,2.82
2019-01-18T02:08:11.279Z,2.86
2019-01-18T02:09:11.271Z,2.87
2019-01-18T02:10:11.251Z,2.75
2019-01-18T02:11:11.263Z,2.71
2019-01-18T02:12:10.978Z,2.79
2019-01-18T02:13:11.232Z,2.82
2019-01-18T02:14:10.735Z,2.8
2019-01-18T02:15:10.719Z,2.79
2019-01-18T02:16:10.972Z,2.71
2019-01-18T02:17:11.173Z,2.71
2019-01-18T02:18:11.174Z,2.86
2019-01-18T02:19:11.166Z,2.68
2019-01-18T02:20:11.144Z,2.77
2019-01-18T02:21:11.134Z,2.77
2019-01-18T02:22:11.122Z,2.85
2019-01-18T02:23:10.892Z,2.77
2019-01-18T02:24:11.113Z,2.75
2019-01-18T02:25:11.081Z,2.74
2019-01-18T02:26:11.075Z,2.75
2019-01-18T02:27:11.065Z,2.75
2019-01-18T02:28:11.065Z,2.67
2019-01-18T02:29:11.032Z,2.72
2019-01-18T02:30:10.816Z,2.72
2019-01-18T02:31:10.794Z,2.77
2019-01-18T02:32:10.764Z,2.79
2019-01-18T02:33:11.008Z,2.69
2019-01-18T02:34:10.557Z,2.77
2019-01-18T02:35:10.989Z,2.8
2019-01-18T02:36:10.968Z,2.89
2019-01-18T02:37:10.963Z,2.8
2019-01-18T02:38:10.956Z,2.85
2019-01-18T02:39:10.940Z,2.85
2019-01-18T02:40:10.714Z,2.79
2019-01-18T02:41:10.923Z,2.86
2019-01-18T02:42:10.903Z,2.83
2019-01-18T02:43:10.906Z,2.87
2019-01-18T02:44:10.635Z,2.9
2019-01-18T02:45:10.883Z,2.86
2019-01-18T02:46:10.887Z,2.92
2019-01-18T02:47:10.845Z,2.93
2019-01-18T02:48:10.856Z,3
2019-01-18T02:49:10.839Z,2.87
2019-01-18T02:50:10.323Z,2.9
2019-01-18T02:51:10.596Z,2.85
2019-01-18T02:52:10.808Z,2.97
2019-01-18T02:53:10.783Z,2.89
2019-01-18T02:54:10.537Z,2.95
2019-01-18T02:55:10.782Z,2.97
2019-01-18T02:56:10.768Z,3.04
2019-01-18T02:57:10.726Z,2.95
2019-01-18T02:58:10.728Z,2.98
2019-01-18T02:59:10.728Z,2.95
2019-01-18T03:00:10.737Z,2.95
2019-01-18T03:01:10.710Z,2.92
2019-01-18T03:02:10.442Z,3
2019-01-18T03:03:10.707Z,3.08
2019-01-18T03:04:10.660Z,3.08
2019-01-18T03:05:10.648Z,3.11
2019-01-18T03:06:10.663Z,3.08
2019-01-18T03:07:10.629Z,3.11
2019-01-18T03:08:10.371Z,3.08
2019-01-18T03:09:10.613Z,3.16
2019-01-18T03:10:10.589Z,3.05
2019-01-18T03:11:10.330Z,3.16
2019-01-18T03:12:10.639Z,3.16
2019-01-18T03:13:10.564Z,3.19
2019-01-18T03:14:10.315Z,3.19
2019-01-18T03:15:10.568Z,3.14
2019-01-18T03:16:10.527Z,3.13
2019-01-18T03:17:10.289Z,3.14
2019-01-18T03:18:10.512Z,3.1
2019-01-18T03:19:10.499Z,3.05
2019-01-18T03:20:10.246Z,3.08
2019-01-18T03:21:10.239Z,3.11
2019-01-18T03:22:10.463Z,3.07
2019-01-18T03:23:10.451Z,3.03
2019-01-18T03:24:10.448Z,3.01
2019-01-18T03:25:10.445Z,3.03
2019-01-18T03:26:10.170Z,3.05
2019-01-18T03:27:10.173Z,2.86
2019-01-18T03:28:10.473Z,2.93
2019-01-18T03:29:09.903Z,2.89
2019-01-18T03:30:23.786Z,2.86
2019-01-18T03:31:10.382Z,2.92
2019-01-18T03:32:10.410Z,2.77
2019-01-18T03:33:10.448Z,2.8
2019-01-18T03:34:10.349Z,2.87
2019-01-18T03:35:10.326Z,2.89
2019-01-18T03:36:10.066Z,2.92
2019-01-18T03:37:10.079Z,2.85
2019-01-18T03:38:10.317Z,2.9
2019-01-18T03:39:09.799Z,2.86
2019-01-18T03:40:10.270Z,2.87
2019-01-18T03:41:10.026Z,2.9
2019-01-18T03:42:10.264Z,2.85
2019-01-18T03:43:10.243Z,2.86
2019-01-18T03:44:09.988Z,2.74
2019-01-18T03:45:10.227Z,2.87
2019-01-18T03:46:09.974Z,2.82
2019-01-18T03:47:09.942Z,2.83
2019-01-18T03:48:10.184Z,2.79
2019-01-18T03:49:09.923Z,2.86
2019-01-18T03:50:10.182Z,2.85
2019-01-18T03:51:10.152Z,2.86
2019-01-18T03:52:10.136Z,2.71
2019-01-18T03:53:10.152Z,2.87
2019-01-18T03:54:10.130Z,2.86
2019-01-18T03:55:10.927Z,2.85
2019-01-18T03:56:09.857Z,2.82
2019-01-18T03:57:09.842Z,2.79
2019-01-18T03:58:10.054Z,2.74
2019-01-18T03:59:09.556Z,2.82
2019-01-18T04:00:10.422Z,2.85
2019-01-18T04:01:10.089Z,2.74
2019-01-18T04:02:10.035Z,2.87
2019-01-18T04:03:09.781Z,2.82
2019-01-18T04:04:10.023Z,2.85
2019-01-18T04:05:09.995Z,2.77
2019-01-18T04:06:09.993Z,2.68
2019-01-18T04:07:09.990Z,2.86
2019-01-18T04:08:09.724Z,2.87
2019-01-18T04:09:09.500Z,2.79
2019-01-18T04:10:09.709Z,2.74
2019-01-18T04:11:09.948Z,2.85
2019-01-18T04:12:09.926Z,2.77
2019-01-18T04:13:09.952Z,2.86
2019-01-18T04:14:09.904Z,2.95
2019-01-18T04:15:09.420Z,2.86
2019-01-18T04:16:09.891Z,2.93
2019-01-18T04:17:09.868Z,3.01
2019-01-18T04:18:09.612Z,2.9
2019-01-18T04:19:09.846Z,2.93
2019-01-18T04:20:09.838Z,2.87
2019-01-18T04:21:09.829Z,2.86
2019-01-18T04:22:09.561Z,3
2019-01-18T04:23:09.817Z,2.92
2019-01-18T04:24:09.539Z,2.89
2019-01-18T04:25:09.774Z,2.87
2019-01-18T04:26:09.796Z,2.92
2019-01-18T04:27:09.505Z,2.79
2019-01-18T04:28:09.744Z,2.85
2019-01-18T04:29:09.501Z,2.75
2019-01-18T04:30:09.266Z,2.86
2019-01-18T04:31:09.709Z,2.74
2019-01-18T04:32:09.730Z,2.8
2019-01-18T04:33:09.701Z,2.9
2019-01-18T04:34:09.473Z,2.9
2019-01-18T04:35:09.702Z,2.9
2019-01-18T04:36:09.684Z,2.85
2019-01-18T04:37:09.713Z,2.9
2019-01-18T04:38:09.655Z,2.93
2019-01-18T04:39:09.636Z,2.89
2019-01-18T04:40:09.640Z,2.89
2019-01-18T04:41:09.362Z,2.93
2019-01-18T04:42:09.601Z,2.85
2019-01-18T04:43:09.588Z,2.95
2019-01-18T04:44:09.318Z,2.92
2019-01-18T04:45:09.317Z,2.89
2019-01-18T04:46:09.308Z,2.83
2019-01-18T04:47:09.305Z,2.8
2019-01-18T04:48:09.283Z,2.85
2019-01-18T04:49:09.428Z,2.85
2019-01-18T04:50:10.065Z,2.82
2019-01-18T04:51:09.014Z,2.82
2019-01-18T04:52:09.601Z,2.89
2019-01-18T04:53:09.308Z,2.86
2019-01-18T04:54:09.471Z,2.87
2019-01-18T04:55:09.459Z,2.86
2019-01-18T04:56:09.441Z,2.93
2019-01-18T04:57:09.185Z,2.9
2019-01-18T04:58:08.923Z,2.9
2019-01-18T04:59:09.432Z,2.86
2019-01-18T05:00:09.153Z,2.87
2019-01-18T05:01:09.388Z,2.75
2019-01-18T05:02:09.149Z,2.83
2019-01-18T05:03:09.357Z,2.89
2019-01-18T05:04:09.123Z,2.86
2019-01-18T05:05:09.370Z,2.87
2019-01-18T05:06:09.087Z,2.79
2019-01-18T05:07:09.076Z,2.77
2019-01-18T05:08:09.313Z,2.86
2019-01-18T05:09:09.313Z,2.82
2019-01-18T05:10:09.076Z,2.8
2019-01-18T05:11:08.809Z,2.9
2019-01-18T05:12:09.033Z,2.93
2019-01-18T05:13:09.268Z,2.86
2019-01-18T05:14:09.004Z,2.92
2019-01-18T05:15:08.996Z,2.86
2019-01-18T05:16:09.233Z,2.92
2019-01-18T05:17:09.218Z,2.82
2019-01-18T05:18:09.211Z,2.82
2019-01-18T05:19:09.209Z,2.89
2019-01-18T05:20:09.201Z,2.89
2019-01-18T05:21:08.930Z,2.77
2019-01-18T05:22:09.258Z,2.79
2019-01-18T05:23:09.226Z,2.85
2019-01-18T05:24:09.154Z,2.85
2019-01-18T05:25:09.166Z,2.9
2019-01-18T05:26:08.889Z,2.83
2019-01-18T05:27:08.893Z,2.74
2019-01-18T05:28:08.631Z,2.8
2019-01-18T05:29:08.851Z,2.85
2019-01-18T05:30:09.083Z,2.79
2019-01-18T05:31:09.083Z,2.87
2019-01-18T05:32:09.062Z,2.83
2019-01-18T05:33:09.055Z,2.87
2019-01-18T05:34:08.557Z,2.89
2019-01-18T05:35:08.781Z,2.8
2019-01-18T05:36:09.000Z,2.74
2019-01-18T05:37:08.985Z,2.87
2019-01-18T05:38:08.725Z,2.87
2019-01-18T05:39:08.991Z,2.89
2019-01-18T05:40:08.958Z,2.89
2019-01-18T05:41:08.741Z,2.92
2019-01-18T05:42:08.961Z,2.82
2019-01-18T05:43:08.933Z,2.86
2019-01-18T05:44:08.931Z,2.87
2019-01-18T05:45:08.663Z,2.87
2019-01-18T05:46:08.909Z,2.85
2019-01-18T05:47:08.890Z,2.8
2019-01-18T05:48:08.876Z,2.8
2019-01-18T05:49:08.684Z,2.93
2019-01-18T05:50:08.615Z,2.83
2019-01-18T05:51:08.887Z,2.9
2019-01-18T05:52:08.904Z,2.85
2019-01-18T05:53:08.650Z,2.85
2019-01-18T05:54:08.818Z,2.9
2019-01-18T05:55:08.845Z,2.89
2019-01-18T05:56:08.857Z,2.85
2019-01-18T05:57:08.531Z,2.9
2019-01-18T05:58:08.529Z,2.86
2019-01-18T05:59:08.780Z,3.01
2019-01-18T06:00:08.505Z,2.93
2019-01-18T06:01:08.734Z,2.89
2019-01-18T06:02:08.757Z,2.9
2019-01-18T06:03:08.493Z,2.87
2019-01-18T06:04:08.472Z,2.86
2019-01-18T06:05:08.700Z,2.93
2019-01-18T06:06:08.682Z,2.92
2019-01-18T06:07:08.673Z,2.86
2019-01-18T06:08:08.408Z,2.86
2019-01-18T06:09:08.407Z,2.89
2019-01-18T06:10:08.386Z,2.87
2019-01-18T06:11:08.646Z,2.82
2019-01-18T06:12:08.138Z,2.86
2019-01-18T06:13:08.608Z,2.87
2019-01-18T06:14:08.112Z,2.83
2019-01-18T06:15:08.583Z,2.82
2019-01-18T06:16:08.342Z,2.82
2019-01-18T06:17:08.571Z,2.86
2019-01-18T06:18:08.298Z,2.89
2019-01-18T06:19:08.316Z,2.82
2019-01-18T06:20:08.300Z,2.86
2019-01-18T06:21:08.513Z,2.77
2019-01-18T06:22:08.305Z,2.85
2019-01-18T06:23:08.242Z,2.74
2019-01-18T06:24:08.252Z,2.83
2019-01-18T06:25:08.344Z,2.83
2019-01-18T06:26:08.220Z,2.9
2019-01-18T06:27:08.243Z,2.85
2019-01-18T06:28:08.232Z,2.77
2019-01-18T06:29:08.180Z,2.77
2019-01-18T06:30:08.162Z,2.83
2019-01-18T06:31:08.945Z,2.85
2019-01-18T06:32:08.471Z,2.86
2019-01-18T06:33:07.882Z,2.74
2019-01-18T06:34:08.139Z,2.83
2019-01-18T06:35:08.357Z,2.86
2019-01-18T06:36:08.392Z,2.87
2019-01-18T06:37:07.874Z,2.85
2019-01-18T06:38:08.384Z,2.86
2019-01-18T06:39:08.320Z,2.77
2019-01-18T06:40:08.054Z,2.85
2019-01-18T06:41:07.799Z,2.87
2019-01-18T06:42:08.299Z,2.82
2019-01-18T06:43:09.074Z,2.86
2019-01-18T06:44:08.049Z,2.83
2019-01-18T06:45:08.248Z,2.83
2019-01-18T06:46:07.763Z,2.79
2019-01-18T06:47:08.227Z,2.72
2019-01-18T06:48:08.225Z,2.72
2019-01-18T06:49:07.984Z,2.54
2019-01-18T06:50:08.212Z,2.61
2019-01-18T06:51:08.186Z,2.51
2019-01-18T06:52:08.167Z,2.43
2019-01-18T06:53:08.161Z,2.39
2019-01-18T06:54:07.908Z,2.25
2019-01-18T06:55:07.902Z,2.26
2019-01-18T06:56:08.132Z,2.22
2019-01-18T06:57:07.861Z,2.2
2019-01-18T06:58:07.876Z,2.15
2019-01-18T06:59:07.842Z,2.15
2019-01-18T07:00:07.856Z,2.17
2019-01-18T07:01:13.108Z,2.2
2019-01-18T07:02:07.808Z,2.13
2019-01-18T07:03:08.084Z,2.15
2019-01-18T07:04:08.046Z,2.17
2019-01-18T07:05:08.057Z,2.26
2019-01-18T07:06:07.794Z,2.22
2019-01-18T07:07:07.819Z,2.13
2019-01-18T07:08:08.052Z,2.2
2019-01-18T07:09:08.008Z,2.11
2019-01-18T07:10:07.979Z,2.13
2019-01-18T07:11:07.488Z,2.04
2019-01-18T07:12:07.720Z,2.08
2019-01-18T07:13:07.957Z,2.02
2019-01-18T07:14:07.939Z,2.08
2019-01-18T07:15:07.935Z,2.13
2019-01-18T07:16:07.919Z,2.07
2019-01-18T07:17:07.654Z,2.02
2019-01-18T07:18:07.637Z,2.06
2019-01-18T07:19:07.880Z,2.07
2019-01-18T07:20:10.003Z,2.07
2019-01-18T07:21:07.876Z,2.11
2019-01-18T07:22:07.678Z,2.06
2019-01-18T07:23:07.415Z,2.15
2019-01-18T07:24:07.566Z,2.17
2019-01-18T07:25:07.561Z,2.11
2019-01-18T07:26:07.553Z,2.11
2019-01-18T07:27:08.575Z,2.28
2019-01-18T07:28:07.766Z,2.1
2019-01-18T07:29:07.761Z,2.24
2019-01-18T07:30:07.786Z,2.29
2019-01-18T07:31:07.743Z,2.31
2019-01-18T07:32:07.480Z,2.25
2019-01-18T07:33:07.708Z,2.24
2019-01-18T07:34:07.463Z,2.25
2019-01-18T07:35:08.497Z,2.38
2019-01-18T07:36:07.707Z,2.31
2019-01-18T07:37:07.462Z,2.33
2019-01-18T07:38:07.447Z,2.42
2019-01-18T07:39:07.193Z,2.46
2019-01-18T07:40:07.413Z,2.35
2019-01-18T07:41:07.138Z,2.42
2019-01-18T07:42:07.378Z,2.43
2019-01-18T07:43:07.351Z,2.42
2019-01-18T07:44:07.588Z,2.43
2019-01-18T07:45:07.586Z,2.43
2019-01-18T07:46:07.575Z,2.38
2019-01-18T07:47:07.550Z,2.43
2019-01-18T07:48:07.336Z,2.43
2019-01-18T07:49:07.057Z,2.39
2019-01-18T07:50:07.289Z,2.39
2019-01-18T07:51:07.534Z,2.43
2019-01-18T07:52:07.052Z,2.47
2019-01-18T07:53:07.272Z,2.39
2019-01-18T07:54:07.232Z,2.42
2019-01-18T07:55:07.212Z,2.36
2019-01-18T07:56:07.457Z,2.39
2019-01-18T07:57:07.201Z,2.39
2019-01-18T07:58:07.011Z,2.39
2019-01-18T07:59:07.467Z,2.42
2019-01-18T08:00:07.423Z,2.42
2019-01-18T08:01:07.402Z,2.39
2019-01-18T08:02:07.183Z,2.42
2019-01-18T08:03:07.176Z,2.46
2019-01-18T08:04:07.166Z,2.42
2019-01-18T08:05:07.357Z,2.47
2019-01-18T08:06:07.112Z,2.53
2019-01-18T08:07:07.339Z,2.44
2019-01-18T08:08:07.991Z,2.46
2019-01-18T08:09:07.112Z,2.46
2019-01-18T08:10:07.300Z,2.39
2019-01-18T08:11:07.282Z,2.42
2019-01-18T08:12:07.284Z,2.38
2019-01-18T08:13:07.269Z,2.44
2019-01-18T08:14:07.005Z,2.39
2019-01-18T08:15:07.010Z,2.36
2019-01-18T08:16:07.014Z,2.44
2019-01-18T08:17:06.984Z,2.38
2019-01-18T08:18:06.721Z,2.39
2019-01-18T08:19:07.574Z,2.44
2019-01-18T08:20:06.951Z,2.42
2019-01-18T08:21:07.198Z,2.39
2019-01-18T08:22:07.174Z,2.39
2019-01-18T08:23:06.908Z,2.42
2019-01-18T08:24:07.155Z,2.6
2019-01-18T08:25:06.891Z,2.5
2019-01-18T08:26:06.906Z,2.5
2019-01-18T08:27:06.878Z,2.51
2019-01-18T08:28:06.639Z,2.56
2019-01-18T08:29:07.105Z,2.69
2019-01-18T08:30:06.622Z,2.71
2019-01-18T08:31:07.082Z,2.77
2019-01-18T08:32:06.834Z,2.85
2019-01-18T08:33:07.113Z,2.92
2019-01-18T08:34:06.794Z,2.86
2019-01-18T08:35:06.902Z,2.9
2019-01-18T08:36:07.045Z,3.07
2019-01-18T08:37:07.003Z,3.08
2019-01-18T08:38:06.991Z,3.11
2019-01-18T08:39:06.505Z,3.16
2019-01-18T08:40:06.726Z,3.21
2019-01-18T08:41:06.712Z,3.21
2019-01-18T08:42:06.987Z,3.23
2019-01-18T08:43:06.703Z,3.14
2019-01-18T08:44:06.939Z,3.26
2019-01-18T08:45:06.921Z,3.23
2019-01-18T08:46:06.929Z,3.22
2019-01-18T08:47:06.707Z,3.22
2019-01-18T08:48:06.899Z,3.26
2019-01-18T08:49:06.895Z,3.25
2019-01-18T08:50:06.887Z,3.29
2019-01-18T08:51:06.880Z,3.36
2019-01-18T08:52:06.602Z,3.34
2019-01-18T08:53:06.885Z,3.4
2019-01-18T08:54:06.625Z,3.42
2019-01-18T08:55:06.830Z,3.32
2019-01-18T08:56:06.838Z,3.37
2019-01-18T08:57:06.845Z,3.36
2019-01-18T08:58:06.830Z,3.34
2019-01-18T08:59:06.845Z,3.34
2019-01-18T09:00:06.799Z,3.22
2019-01-18T09:01:06.774Z,3.31
2019-01-18T09:02:06.523Z,3.31
2019-01-18T09:03:06.749Z,3.23
2019-01-18T09:04:06.731Z,3.32
2019-01-18T09:05:06.735Z,3.36
2019-01-18T09:06:06.486Z,3.23
2019-01-18T09:07:06.455Z,3.23
2019-01-18T09:08:06.460Z,3.26
2019-01-18T09:09:06.691Z,3.26
2019-01-18T09:10:06.681Z,3.23
2019-01-18T09:11:06.661Z,3.31
2019-01-18T09:12:06.642Z,3.31
2019-01-18T09:13:06.649Z,3.37
2019-01-18T09:14:06.378Z,3.32
2019-01-18T09:15:06.622Z,3.4
2019-01-18T09:16:06.632Z,3.41
2019-01-18T09:17:06.592Z,3.47
2019-01-18T09:18:06.370Z,3.48
2019-01-18T09:19:06.590Z,3.5
2019-01-18T09:20:06.714Z,3.47
2019-01-18T09:21:06.582Z,3.51
2019-01-18T09:22:06.611Z,3.51
2019-01-18T09:23:06.548Z,3.65
2019-01-18T09:24:06.288Z,3.63
2019-01-18T09:25:06.547Z,3.59
2019-01-18T09:26:06.520Z,3.73
2019-01-18T09:27:06.053Z,3.63
2019-01-18T09:28:06.499Z,3.74
2019-01-18T09:29:06.262Z,3.73
2019-01-18T09:30:06.475Z,3.84
2019-01-18T09:31:06.919Z,3.91
2019-01-18T09:32:06.513Z,3.86
2019-01-18T09:33:06.198Z,3.83
2019-01-18T09:34:06.452Z,3.87
2019-01-18T09:35:06.469Z,3.87
2019-01-18T09:36:06.201Z,3.84
2019-01-18T09:37:06.433Z,3.86
2019-01-18T09:38:06.152Z,3.94
2019-01-18T09:39:06.162Z,3.91
2019-01-18T09:40:05.902Z,3.74
2019-01-18T09:41:06.162Z,3.69
2019-01-18T09:42:05.878Z,3.65
2019-01-18T09:43:06.353Z,3.62
2019-01-18T09:44:06.362Z,3.51
2019-01-18T09:45:06.085Z,3.51
2019-01-18T09:46:06.319Z,3.56
2019-01-18T09:47:05.823Z,3.42
2019-01-18T09:48:06.054Z,3.42
2019-01-18T09:49:05.811Z,3.34
2019-01-18T09:50:06.112Z,3.23
2019-01-18T09:51:06.268Z,3.28
2019-01-18T09:52:06.300Z,3.28
2019-01-18T09:53:06.023Z,3.26
2019-01-18T09:54:06.241Z,3.28
2019-01-18T09:55:06.212Z,3.21
2019-01-18T09:56:05.983Z,3.22
2019-01-18T09:57:05.950Z,3.22
2019-01-18T09:58:05.963Z,3.23
2019-01-18T09:59:06.203Z,3.22
2019-01-18T10:00:05.691Z,3.07
2019-01-18T10:01:07.449Z,3.21
2019-01-18T10:02:05.944Z,3.25
2019-01-18T10:03:05.693Z,3.19
2019-01-18T10:04:05.896Z,3.14
2019-01-18T10:05:06.130Z,3.23
2019-01-18T10:06:05.641Z,3.36
2019-01-18T10:07:06.106Z,3.31
2019-01-18T10:08:07.764Z,3.23
2019-01-18T10:09:05.600Z,3.25
2019-01-18T10:10:05.826Z,3.28
2019-01-18T10:11:06.068Z,3.44
2019-01-18T10:12:06.061Z,3.4
2019-01-18T10:13:05.826Z,3.4
2019-01-18T10:14:06.063Z,3.4
2019-01-18T10:15:05.788Z,3.41
2019-01-18T10:16:05.771Z,3.41
2019-01-18T10:17:06.034Z,3.44
2019-01-18T10:18:06.013Z,3.4
2019-01-18T10:19:06.039Z,3.47
2019-01-18T10:20:06.317Z,3.41
2019-01-18T10:21:05.973Z,3.59
2019-01-18T10:22:05.976Z,3.58
2019-01-18T10:23:05.948Z,3.62
2019-01-18T10:24:05.686Z,3.56
2019-01-18T10:25:05.694Z,3.58
2019-01-18T10:26:05.937Z,3.6
2019-01-18T10:27:05.664Z,3.58
2019-01-18T10:28:05.397Z,3.66
2019-01-18T10:29:05.630Z,3.73
2019-01-18T10:30:05.378Z,3.74
2019-01-18T10:31:05.620Z,3.8
2019-01-18T10:32:05.372Z,3.73
2019-01-18T10:33:05.890Z,3.66
2019-01-18T10:34:05.841Z,3.69
2019-01-18T10:35:05.316Z,3.7
2019-01-18T10:36:05.578Z,3.7
2019-01-18T10:37:05.557Z,3.73
2019-01-18T10:38:05.538Z,3.73
2019-01-18T10:39:05.296Z,3.77
2019-01-18T10:40:05.789Z,3.7
2019-01-18T10:41:05.530Z,3.74
2019-01-18T10:42:05.761Z,3.74
2019-01-18T10:43:05.749Z,3.74
2019-01-18T10:44:10.575Z,3.77
2019-01-18T10:45:05.474Z,3.86
2019-01-18T10:46:05.467Z,3.84
2019-01-18T10:47:05.714Z,3.84
2019-01-18T10:48:05.457Z,3.8
2019-01-18T10:49:05.441Z,3.81
2019-01-18T10:50:05.441Z,3.94
2019-01-18T10:51:05.726Z,3.88
2019-01-18T10:52:05.649Z,3.98
2019-01-18T10:53:05.404Z,4.02
2019-01-18T10:54:05.383Z,4.08
2019-01-18T10:55:05.852Z,4.04
2019-01-18T10:56:05.377Z,4.05
2019-01-18T10:57:05.106Z,4.04
2019-01-18T10:58:05.143Z,4.19
2019-01-18T10:59:05.347Z,4.13
2019-01-18T11:00:05.591Z,4.16
2019-01-18T11:01:05.322Z,4.14
2019-01-18T11:02:12.111Z,4.05
2019-01-18T11:03:05.590Z,4.02
2019-01-18T11:04:05.290Z,4.2
2019-01-18T11:05:05.285Z,4.17
2019-01-18T11:06:05.564Z,4.19
2019-01-18T11:07:05.285Z,4.28
2019-01-18T11:08:05.279Z,4.28
2019-01-18T11:09:05.771Z,4.28
2019-01-18T11:10:05.250Z,4.38
2019-01-18T11:11:05.237Z,4.4
2019-01-18T11:12:05.479Z,4.32
2019-01-18T11:13:04.959Z,4.4
2019-01-18T11:14:04.948Z,4.49
2019-01-18T11:15:05.195Z,4.5
2019-01-18T11:16:04.941Z,4.49
2019-01-18T11:17:05.465Z,4.53
2019-01-18T11:18:05.191Z,4.5
2019-01-18T11:19:05.163Z,4.59
2019-01-18T11:20:05.415Z,4.67
2019-01-18T11:21:05.142Z,4.59
2019-01-18T11:22:04.947Z,4.58
2019-01-18T11:23:05.381Z,4.55
2019-01-18T11:24:04.854Z,4.53
2019-01-18T11:25:04.857Z,4.42
2019-01-18T11:26:05.101Z,4.52
2019-01-18T11:27:05.092Z,4.55
2019-01-18T11:28:05.342Z,4.5
2019-01-18T11:29:04.814Z,4.68
2019-01-18T11:30:05.127Z,4.73
2019-01-18T11:31:05.300Z,4.87
2019-01-18T11:32:05.278Z,4.9
2019-01-18T11:33:05.033Z,4.92
2019-01-18T11:34:05.270Z,5
2019-01-18T11:35:05.009Z,5.05
2019-01-18T11:36:05.004Z,5.15
2019-01-18T11:37:05.254Z,5.11
2019-01-18T11:38:04.747Z,5.15
2019-01-18T11:39:07.134Z,5.17
2019-01-18T11:40:04.721Z,5.25
2019-01-18T11:41:04.723Z,5.15
2019-01-18T11:42:07.761Z,5.15
2019-01-18T11:43:05.203Z,5.14
2019-01-18T11:44:04.955Z,5.17
2019-01-18T11:45:05.178Z,5.11
2019-01-18T11:46:04.944Z,5.15
2019-01-18T11:47:05.166Z,5.17
2019-01-18T11:48:04.899Z,5.07
2019-01-18T11:49:04.912Z,5.02
2019-01-18T11:50:05.143Z,5.05
2019-01-18T11:51:04.886Z,5.11
2019-01-18T11:52:05.126Z,5.07
2019-01-18T11:53:04.859Z,4.97
2019-01-18T11:54:05.112Z,4.84
2019-01-18T11:55:05.131Z,4.92
2019-01-18T11:56:04.598Z,4.84
2019-01-18T11:57:04.850Z,4.84
2019-01-18T11:58:04.607Z,4.9
2019-01-18T11:59:04.829Z,4.89
2019-01-18T12:00:05.060Z,4.9
2019-01-18T12:01:05.069Z,4.87
2019-01-18T12:02:05.042Z,4.78
2019-01-18T12:03:05.055Z,4.89
2019-01-18T12:04:04.771Z,4.97
2019-01-18T12:05:04.777Z,4.93
2019-01-18T12:06:05.003Z,4.89
2019-01-18T12:07:04.756Z,5
2019-01-18T12:08:04.981Z,5.02
2019-01-18T12:09:04.733Z,5.08
2019-01-18T12:10:04.816Z,5.1
2019-01-18T12:11:04.722Z,5.08
2019-01-18T12:12:04.955Z,5.05
2019-01-18T12:13:04.702Z,5.14
2019-01-18T12:14:04.952Z,5.12
2019-01-18T12:15:05.078Z,5.12
2019-01-18T12:16:04.685Z,5.17
2019-01-18T12:17:04.692Z,5.2
2019-01-18T12:18:05.744Z,5.14
2019-01-18T12:19:04.903Z,5.17
2019-01-18T12:20:04.691Z,5.28
2019-01-18T12:21:04.717Z,5.36
2019-01-18T12:22:04.879Z,5.28
2019-01-18T12:23:04.626Z,5.25
2019-01-18T12:24:04.665Z,5.11
2019-01-18T12:25:04.707Z,5.04
2019-01-18T12:26:04.841Z,4.99
2019-01-18T12:27:04.818Z,4.94
2019-01-18T12:28:04.591Z,4.82
2019-01-18T12:29:04.860Z,4.67
2019-01-18T12:30:04.596Z,4.73
2019-01-18T12:31:04.560Z,4.82
2019-01-18T12:32:04.543Z,4.74
2019-01-18T12:33:04.288Z,4.82
2019-01-18T12:34:04.543Z,4.86
2019-01-18T12:35:04.521Z,4.84
2019-01-18T12:36:04.514Z,4.8
2019-01-18T12:37:04.737Z,4.82
2019-01-18T12:38:04.508Z,4.9
2019-01-18T12:39:04.729Z,5.05
2019-01-18T12:40:04.507Z,5.05
2019-01-18T12:41:04.463Z,5.02
2019-01-18T12:42:04.712Z,5
2019-01-18T12:43:04.684Z,4.9
2019-01-18T12:44:04.445Z,4.86
2019-01-18T12:45:06.070Z,4.93
2019-01-18T12:46:04.422Z,4.97
2019-01-18T12:47:04.673Z,5
2019-01-18T12:48:05.527Z,5.11
2019-01-18T12:49:04.637Z,5.18
2019-01-18T12:50:04.378Z,5.17
2019-01-18T12:51:05.869Z,5.14
2019-01-18T12:52:04.384Z,5.12
2019-01-18T12:53:04.626Z,5.08
2019-01-18T12:54:04.604Z,5.17
2019-01-18T12:55:04.609Z,5.15
2019-01-18T12:56:04.325Z,5.14
2019-01-18T12:57:04.329Z,5.14
2019-01-18T12:58:04.382Z,5.12
2019-01-18T12:59:04.559Z,5.32
2019-01-18T13:00:04.320Z,5.29
2019-01-18T13:01:04.537Z,5.39
2019-01-18T13:02:04.042Z,5.46
2019-01-18T13:03:05.916Z,5.47
2019-01-18T13:04:08.155Z,5.46
2019-01-18T13:05:04.254Z,5.51
2019-01-18T13:06:04.511Z,5.47
2019-01-18T13:07:04.483Z,5.33
2019-01-18T13:08:04.494Z,5.36
2019-01-18T13:09:04.219Z,5.41
2019-01-18T13:10:04.272Z,5.47
2019-01-18T13:11:04.455Z,5.25
2019-01-18T13:12:04.456Z,5.25
2019-01-18T13:13:04.181Z,5.29
2019-01-18T13:14:05.277Z,5.08
2019-01-18T13:15:04.421Z,5.05
2019-01-18T13:16:04.162Z,5.12
2019-01-18T13:17:03.930Z,5.12
2019-01-18T13:18:04.404Z,5.17
2019-01-18T13:19:03.900Z,5.25
2019-01-18T13:20:04.134Z,5.26
2019-01-18T13:21:04.367Z,5.29